Berabevu, Argentina
Current Conditions -  °F | °C
As of 5:00 AM on Saturday 29 Nov 2014 (Local Time) from SAAR Reporting Station
Clear Clear  
Wind Chill: 22°   Ceiling: Unl
Heat Index: 22°   Visibility: 6mi
Dew Point: 15°   Wind: 13mph
Humidity: 64%   Direction: 50°NE
Pressure: 29.65"   Gusts: NA
Location:  33.48°S, 61.99°W
Report Text: SAAR 290800Z 05011KT CAVOK 22/15 Q1004
Loading
Personal Weather Stations






























Interactive Weather Map New forecast layout! Learn more

10-Day Weather Forecast

Advertisements
Track Severe Weather on mobile